メインページ
METAR-TAF:

METAR-TAF

空港 :

ケロウナ国際空港

ケロウナ, ブリティッシュコロンビア州, カナダ

緯度: 49-58N, 経度: 119-23W, 海抜: 430m

現時点の気象観測

当レポートは32分前の06:08(UTC)に作成
南/南東の風 5kt
気温 1°C
湿度 93%
気圧 1014 hPa
視程: 14.5km
高度1300ftの千切れ雲あり
高度7500ftの曇り

METAR: CYLW 150608Z AUTO 15005KT 9SM BKN013 OVC075 01/M00 A2995 RMK SLP160

時間: 22:40 (06:40 UTC)

予報

当レポートは6時間2分前の00:38(UTC)に作成
予報は15日の 01時(UTC)から 15日の 13時(UTC)まで有効
変向風 3kt
視程: 10km
高度1200ftの雲は散在している
高度6000ftの千切れ雲あり
15日の 01時(UTC)から 15日の 06時(UTC)まで一時的に
視程: 4.8km
高度1000ftの千切れ雲あり
確率 30%
15日の 01時(UTC)から 15日の 06時(UTC)まで
視程: 3.2km
15日の 0600時(UTC)から
変向風 3kt
視程: 10km
高度800ftの雲は散在している
高度2500ftの千切れ雲あり
15日の 06時(UTC)から 15日の 13時(UTC)まで一時的に
視程: 3.2km
高度800ftの千切れ雲あり
確率 30%
15日の 06時(UTC)から 15日の 13時(UTC)まで
視程: 1.6km
弱いにわか雪, 靄

TAF: CYLW 150038Z 1501/1513 VRB03KT P6SM SCT012 BKN060 TEMPO 1501/1506 3SM BR BKN010 PROB30 1501/1506 2SM BR FM150600 VRB03KT P6SM SCT008 BKN025 TEMPO 1506/1513 2SM BR BKN008 PROB30 1506/1513 1SM -SHSN BR RMK FCST BASED ON AUTO OBS. NXT FCST BY 150700Z

4,000以上の空港の気象観測と天気予報(METAR報とTAF報)

利用可能な観測所は地図上に黄色い丸と赤い丸で示す。

丸の上にカーソルを重ねると観測所名を参照できる。

次にクリックすると気象観測と天気予報を参照できる。

マップの切り替え:黒色「×」印の緑ボタンをクリックして拡大、「-」印の緑ボタンをクリックして縮小、緑色の三角印をクリックして隣りの地図に切り替え


METAR-TAF: